Time;durP1;ratioP1;P1;durP2;ratioP2;P2;SDS_P1;SDS_P2;PMS_P1;PMS_P2;Temp;Humidity;BMP_temperature;BMP_pressure;BME280_temperature;BME280_humidity;BME280_pressure;Samples;Min_cycle;Max_cycle;Signal;HPM_P1;HPM_P2
2022/01/06 00:00:46;;;;;;;;;;;;;;;26.83;60.30;96008.67;625952;226;67186;-63
2022/01/06 00:03:13;;;;;;;;;;;;;;;26.84;60.61;96007.54;625931;226;66858;-63
2022/01/06 00:05:41;;;;;;;;;;;;;;;26.83;59.92;96016.76;625973;226;64989;-63
2022/01/06 00:08:08;;;;;;;;;;;;;;;26.81;59.44;96017.08;625914;226;65045;-63
2022/01/06 00:10:36;;;;;;;;;;;;;;;26.82;59.72;96015.16;625927;226;64926;-63
2022/01/06 00:13:11;;;;;;;;;;;;;;;26.82;59.77;96018.67;625952;226;64878;-63
2022/01/06 00:15:44;;;;;;;;;;;;;;;26.82;59.80;96023.25;625578;226;67144;-65
2022/01/06 00:23:31;;;;;;;;;;;;;;;26.78;59.71;96023.92;625898;226;67530;-64
2022/01/06 00:25:53;;;;;;;;;;;;;;;26.77;60.13;96019.66;625774;226;67017;-64
2022/01/06 00:28:21;;;;;;;;;;;;;;;26.77;59.96;96018.88;625920;226;64995;-64
2022/01/06 00:30:48;;;;;;;;;;;;;;;26.77;59.89;96026.96;625893;226;67157;-64
2022/01/06 00:33:18;;;;;;;;;;;;;;;26.76;59.65;96018.09;625992;226;67065;-64
2022/01/06 00:35:46;;;;;;;;;;;;;;;26.76;59.89;96031.57;625961;226;65012;-65
2022/01/06 00:38:13;;;;;;;;;;;;;;;26.74;59.86;96028.41;625936;226;67191;-64
2022/01/06 00:40:41;;;;;;;;;;;;;;;26.74;59.81;96014.94;625946;226;67034;-64
2022/01/06 00:43:10;;;;;;;;;;;;;;;26.74;59.98;96006.85;625912;226;65005;-63
2022/01/06 00:45:38;;;;;;;;;;;;;;;26.73;60.08;96009.87;625919;226;67177;-64
2022/01/06 00:48:10;;;;;;;;;;;;;;;26.72;59.22;96009.09;625983;226;66957;-64
2022/01/06 00:50:39;;;;;;;;;;;;;;;26.72;60.97;96001.00;625731;226;62980;-64
2022/01/06 00:53:06;;;;;;;;;;;;;;;26.70;60.09;95997.84;624802;227;67114;-63
2022/01/06 00:55:35;;;;;;;;;;;;;;;26.70;60.16;95999.75;624785;227;66841;-63
2022/01/06 00:58:03;;;;;;;;;;;;;;;26.69;60.27;96007.06;624612;227;65076;-63
2022/01/06 01:00:38;;;;;;;;;;;;;;;26.70;60.44;96005.14;624829;227;67250;-63
2022/01/06 01:03:00;;;;;;;;;;;;;;;26.69;59.89;95998.97;624625;226;67517;-63
2022/01/06 01:05:28;;;;;;;;;;;;;;;26.68;60.60;96002.80;624777;227;62726;-63
2022/01/06 01:07:55;;;;;;;;;;;;;;;26.66;59.66;96002.34;624799;227;65019;-63
2022/01/06 01:10:23;;;;;;;;;;;;;;;26.68;60.43;96001.98;624746;227;65196;-63
2022/01/06 01:12:50;;;;;;;;;;;;;;;26.67;60.00;95995.03;624842;227;62891;-63
2022/01/06 01:15:21;;;;;;;;;;;;;;;26.66;60.47;95988.08;624759;227;64981;-63
2022/01/06 01:17:49;;;;;;;;;;;;;;;26.63;60.08;95992.22;624786;227;65007;-65
2022/01/06 01:20:18;;;;;;;;;;;;;;;26.64;60.78;95990.31;624785;227;65056;-64
2022/01/06 01:22:46;;;;;;;;;;;;;;;26.63;59.78;95992.22;624373;227;67240;-64
2022/01/06 01:25:14;;;;;;;;;;;;;;;26.62;59.73;95987.94;624761;227;67043;-64
2022/01/06 01:27:43;;;;;;;;;;;;;;;26.62;60.17;95979.85;624380;227;64885;-65
2022/01/06 01:30:14;;;;;;;;;;;;;;;26.61;59.86;95980.98;624730;227;64638;-65
2022/01/06 01:32:49;;;;;;;;;;;;;;;26.61;60.26;95967.51;624788;227;66989;-64
2022/01/06 01:35:12;;;;;;;;;;;;;;;26.59;60.66;95964.35;624637;226;63008;-65
2022/01/06 01:37:40;;;;;;;;;;;;;;;26.59;60.00;95964.35;624754;227;67401;-64
2022/01/06 01:40:09;;;;;;;;;;;;;;;26.60;59.99;95968.64;624847;227;67153;-64
2022/01/06 01:42:37;;;;;;;;;;;;;;;26.59;59.96;95964.35;624760;227;62720;-65
2022/01/06 01:45:05;;;;;;;;;;;;;;;26.58;59.69;95954.70;624771;227;67190;-63
2022/01/06 01:47:43;;;;;;;;;;;;;;;26.58;59.77;95954.70;624783;227;66996;-63
2022/01/06 01:50:12;;;;;;;;;;;;;;;26.55;59.67;95952.68;624708;226;63013;-65
2022/01/06 01:52:41;;;;;;;;;;;;;;;26.55;59.74;95947.29;624742;226;68863;-64
2022/01/06 01:55:09;;;;;;;;;;;;;;;26.55;60.66;95948.07;624608;226;67139;-64
2022/01/06 01:57:37;;;;;;;;;;;;;;;26.56;60.62;95946.16;624761;227;65361;-64
2022/01/06 02:00:06;;;;;;;;;;;;;;;26.54;59.80;95940.31;624769;227;64814;-64
2022/01/06 02:02:35;;;;;;;;;;;;;;;26.52;60.21;95945.27;624717;226;48497;-64
2022/01/06 02:05:03;;;;;;;;;;;;;;;26.53;60.36;95936.83;624773;227;65034;-64
2022/01/06 02:07:30;;;;;;;;;;;;;;;26.51;60.33;95943.67;624783;227;67035;-64
2022/01/06 02:09:58;;;;;;;;;;;;;;;26.53;61.99;95944.13;624760;227;66880;-65
2022/01/06 02:12:31;;;;;;;;;;;;;;;26.50;59.97;95942.08;624391;227;64982;-64
2022/01/06 02:14:59;;;;;;;;;;;;;;;26.49;59.79;95948.56;624776;227;65075;-64
2022/01/06 02:17:27;;;;;;;;;;;;;;;26.49;60.04;95949.38;624805;227;66802;-64
2022/01/06 02:19:55;;;;;;;;;;;;;;;26.48;60.10;95947.00;624775;227;65008;-64
2022/01/06 02:22:23;;;;;;;;;;;;;;;26.47;60.93;95951.61;624747;227;65110;-64
2022/01/06 02:24:51;;;;;;;;;;;;;;;26.46;61.22;95957.31;624771;227;65099;-64
2022/01/06 02:27:22;;;;;;;;;;;;;;;26.46;60.78;95957.31;624758;227;62940;-64
2022/01/06 02:29:50;;;;;;;;;;;;;;;26.44;59.85;95960.36;624790;227;67190;-65
2022/01/06 02:32:19;;;;;;;;;;;;;;;26.43;60.44;95969.54;624762;227;67819;-65
2022/01/06 02:34:47;;;;;;;;;;;;;;;26.43;61.24;95968.76;624796;227;62997;-65
2022/01/06 02:37:15;;;;;;;;;;;;;;;26.42;60.39;95973.36;624783;227;64728;-65
2022/01/06 02:39:43;;;;;;;;;;;;;;;26.42;60.43;95980.66;624782;227;64638;-65
2022/01/06 02:42:11;;;;;;;;;;;;;;;26.42;60.34;95978.75;624808;227;62733;-65
2022/01/06 02:44:39;;;;;;;;;;;;;;;26.42;60.35;95988.75;624797;227;66678;-65
2022/01/06 02:47:08;;;;;;;;;;;;;;;26.40;60.53;95986.38;624809;227;66603;-65
2022/01/06 02:49:35;;;;;;;;;;;;;;;26.41;60.30;95992.54;624800;227;62988;-65
2022/01/06 02:52:03;;;;;;;;;;;;;;;26.41;60.86;95992.54;624764;226;64835;-65
2022/01/06 02:54:30;;;;;;;;;;;;;;;26.39;60.41;95997.49;624830;227;64602;-65
2022/01/06 02:56:58;;;;;;;;;;;;;;;26.39;60.86;95995.58;624860;227;63179;-65
2022/01/06 02:59:26;;;;;;;;;;;;;;;26.38;60.86;96003.98;624857;227;66888;-65
2022/01/06 03:01:53;;;;;;;;;;;;;;;26.37;60.43;96008.58;624825;227;66620;-65
2022/01/06 03:04:23;;;;;;;;;;;;;;;26.36;61.09;96001.63;624772;227;65228;-65
2022/01/06 03:06:52;;;;;;;;;;;;;;;26.36;61.21;96007.02;624835;227;67162;-65
2022/01/06 03:09:25;;;;;;;;;;;;;;;26.35;60.64;96006.23;624801;227;67043;-62
2022/01/06 03:11:48;;;;;;;;;;;;;;;26.33;61.77;95991.52;624730;226;62980;-63
2022/01/06 03:14:16;;;;;;;;;;;;;;;26.33;61.25;96010.38;624798;227;64554;-63
2022/01/06 03:16:43;;;;;;;;;;;;;;;26.33;61.25;96007.69;624802;227;64853;-63
2022/01/06 03:19:11;;;;;;;;;;;;;;;26.33;60.33;96008.47;624800;227;65034;-63
2022/01/06 03:21:38;;;;;;;;;;;;;;;26.31;60.51;96013.39;624791;227;67212;-63
2022/01/06 03:24:06;;;;;;;;;;;;;;;26.33;60.29;96005.77;624819;227;67132;-63
2022/01/06 03:26:34;;;;;;;;;;;;;;;26.33;60.48;96007.69;624828;227;65062;-63
2022/01/06 03:29:01;;;;;;;;;;;;;;;26.29;60.49;95996.77;624812;227;67115;-63
2022/01/06 03:31:29;;;;;;;;;;;;;;;26.31;60.22;95999.92;624792;227;64527;-63
2022/01/06 03:33:56;;;;;;;;;;;;;;;26.29;60.47;95994.06;624808;227;63661;-63
2022/01/06 03:36:24;;;;;;;;;;;;;;;26.27;60.52;95988.25;624801;227;67162;-63
2022/01/06 03:38:51;;;;;;;;;;;;;;;26.28;60.55;95995.20;624823;227;67287;-63
2022/01/06 03:41:19;;;;;;;;;;;;;;;26.28;60.58;95997.89;624766;227;64866;-63
2022/01/06 03:43:46;;;;;;;;;;;;;;;26.28;61.03;96007.87;624817;227;67165;-63
2022/01/06 03:46:14;;;;;;;;;;;;;;;26.26;60.50;96020.88;624789;227;64701;-63
2022/01/06 03:48:41;;;;;;;;;;;;;;;26.25;60.62;96011.23;624800;227;62915;-63
2022/01/06 03:51:09;;;;;;;;;;;;;;;26.24;60.99;96021.19;625165;226;65146;-63
2022/01/06 03:53:36;;;;;;;;;;;;;;;26.23;61.44;96026.92;625918;226;64931;-63
2022/01/06 03:56:04;;;;;;;;;;;;;;;26.22;60.96;96031.53;625951;226;62895;-63
2022/01/06 03:58:32;;;;;;;;;;;;;;;26.22;61.06;96030.72;625925;226;66885;-63
2022/01/06 04:00:59;;;;;;;;;;;;;;;26.21;61.79;96032.63;625961;226;65011;-63
2022/01/06 04:03:27;;;;;;;;;;;;;;;26.19;61.64;96034.88;625952;226;62895;-63
2022/01/06 04:05:54;;;;;;;;;;;;;;;26.21;60.99;96035.32;625909;226;65047;-63
2022/01/06 04:08:22;;;;;;;;;;;;;;;26.19;61.74;96029.50;625876;226;64854;-63
2022/01/06 04:10:49;;;;;;;;;;;;;;;26.18;61.79;96029.81;625903;226;65285;-63
2022/01/06 04:13:17;;;;;;;;;;;;;;;26.18;60.54;96029.81;625872;226;67214;-63
2022/01/06 04:15:45;;;;;;;;;;;;;;;26.20;61.66;96032.97;626009;226;66866;-63
2022/01/06 04:18:13;;;;;;;;;;;;;;;26.18;61.33;96032.50;625951;226;68605;-65
2022/01/06 04:20:40;;;;;;;;;;;;;;;26.17;61.53;96036.33;625952;226;67221;-65
2022/01/06 04:23:08;;;;;;;;;;;;;;;26.16;61.50;96034.73;625914;226;67157;-64
2022/01/06 04:25:37;;;;;;;;;;;;;;;26.15;60.63;96031.25;625825;226;65047;-64
2022/01/06 04:28:04;;;;;;;;;;;;;;;26.16;62.44;96040.11;625915;226;67171;-64
2022/01/06 04:30:32;;;;;;;;;;;;;;;26.16;61.23;96040.11;625977;226;67069;-64
2022/01/06 04:32:59;;;;;;;;;;;;;;;26.13;61.10;96041.56;625919;226;64924;-64
2022/01/06 04:35:27;;;;;;;;;;;;;;;26.12;61.82;96046.16;625905;226;67182;-64
2022/01/06 04:37:54;;;;;;;;;;;;;;;26.11;62.56;96054.58;625942;226;67053;-64
2022/01/06 04:40:22;;;;;;;;;;;;;;;26.11;61.18;96051.89;625944;226;65093;-64
2022/01/06 04:42:49;;;;;;;;;;;;;;;26.12;61.74;96053.45;625970;226;67186;-64
2022/01/06 04:45:17;;;;;;;;;;;;;;;26.11;61.91;96066.13;625963;226;66802;-64
2022/01/06 04:47:44;;;;;;;;;;;;;;;26.10;61.70;96069.14;625937;226;64866;-64
2022/01/06 04:50:12;;;;;;;;;;;;;;;26.08;61.17;96074.88;625897;226;67087;-64
2022/01/06 04:52:39;;;;;;;;;;;;;;;26.08;61.15;96076.75;624741;226;67255;-64
2022/01/06 04:55:07;;;;;;;;;;;;;;;26.07;62.58;96083.27;624810;227;64852;-64
2022/01/06 04:57:35;;;;;;;;;;;;;;;26.06;61.11;96079.00;624798;227;67275;-64
2022/01/06 05:00:04;;;;;;;;;;;;;;;26.04;61.19;96087.39;624803;227;64710;-64
2022/01/06 05:02:31;;;;;;;;;;;;;;;26.05;61.29;96101.64;624778;227;64893;-64
2022/01/06 05:04:59;;;;;;;;;;;;;;;26.04;61.86;96105.45;624797;227;67003;-64
2022/01/06 05:07:27;;;;;;;;;;;;;;;26.02;61.41;96104.98;624826;227;67039;-64
2022/01/06 05:09:54;;;;;;;;;;;;;;;26.01;62.27;96116.88;624824;227;64828;-64
2022/01/06 05:12:22;;;;;;;;;;;;;;;26.01;62.18;96122.27;624746;227;66953;-64
2022/01/06 05:14:49;;;;;;;;;;;;;;;26.00;62.28;96123.36;624785;227;64924;-64
2022/01/06 05:17:17;;;;;;;;;;;;;;;25.99;62.90;96127.17;624734;227;62926;-64
2022/01/06 05:19:45;;;;;;;;;;;;;;;25.99;63.02;96119.09;624815;227;67495;-64
2022/01/06 05:22:13;;;;;;;;;;;;;;;25.98;61.87;96130.99;624679;227;66964;-64
2022/01/06 05:24:41;;;;;;;;;;;;;;;25.99;63.07;96127.17;624784;227;64993;-64
2022/01/06 05:27:13;;;;;;;;;;;;;;;26.00;61.71;96124.17;624684;227;67149;-64
2022/01/06 05:29:38;;;;;;;;;;;;;;;26.01;61.62;96127.64;624437;226;66913;-64
2022/01/06 05:32:06;;;;;;;;;;;;;;;25.99;62.88;96122.58;615465;227;69283;-64
2022/01/06 05:34:34;;;;;;;;;;;;;;;26.00;62.22;96128.74;615449;227;68648;-64
2022/01/06 05:37:01;;;;;;;;;;;;;;;25.97;62.46;96134.78;624766;227;66893;-64
2022/01/06 05:39:29;;;;;;;;;;;;;;;25.96;62.49;96130.52;624788;227;64989;-64
2022/01/06 05:41:56;;;;;;;;;;;;;;;25.95;62.91;96132.42;624729;227;68312;-64
2022/01/06 05:44:25;;;;;;;;;;;;;;;25.92;61.88;96125.00;624811;227;64482;-64
2022/01/06 05:46:53;;;;;;;;;;;;;;;25.95;62.07;96131.64;624831;227;65238;-64
2022/01/06 05:49:20;;;;;;;;;;;;;;;25.97;60.92;96140.16;624784;227;67122;-64
2022/01/06 05:51:48;;;;;;;;;;;;;;;25.98;62.85;96137.16;625323;226;66846;-64
2022/01/06 05:54:15;;;;;;;;;;;;;;;25.98;62.41;96145.23;625911;226;64988;-64
2022/01/06 05:56:43;;;;;;;;;;;;;;;25.98;62.05;96157.91;625858;226;67287;-64
2022/01/06 05:59:10;;;;;;;;;;;;;;;25.96;62.33;96165.52;625985;226;66816;-64
2022/01/06 06:01:38;;;;;;;;;;;;;;;25.96;62.31;96160.13;625937;226;65136;-64
2022/01/06 06:04:05;;;;;;;;;;;;;;;25.95;61.18;96167.42;625899;226;67025;-64
2022/01/06 06:06:33;;;;;;;;;;;;;;;25.97;61.28;96159.01;625916;226;67343;-64
2022/01/06 06:09:00;;;;;;;;;;;;;;;25.98;63.50;96172.16;625894;226;65166;-64
2022/01/06 06:11:28;;;;;;;;;;;;;;;26.01;62.02;96168.03;625938;226;65699;-64
2022/01/06 06:13:55;;;;;;;;;;;;;;;26.02;61.48;96178.45;625922;226;64895;-64
2022/01/06 06:16:24;;;;;;;;;;;;;;;26.02;62.32;96181.15;625926;226;62838;-64
2022/01/06 06:18:52;;;;;;;;;;;;;;;26.01;60.89;96179.58;625889;226;65044;-65
2022/01/06 06:21:20;;;;;;;;;;;;;;;26.03;61.69;96176.58;625955;226;64454;-64
2022/01/06 06:23:47;;;;;;;;;;;;;;;26.04;62.30;96175.45;625967;226;63018;-64
2022/01/06 06:26:15;;;;;;;;;;;;;;;26.02;62.16;96185.75;625963;226;67202;-64
2022/01/06 06:28:42;;;;;;;;;;;;;;;26.01;62.11;96184.18;625873;226;66975;-64
2022/01/06 06:31:10;;;;;;;;;;;;;;;25.99;63.87;96181.80;625930;226;65203;-63
2022/01/06 06:33:37;;;;;;;;;;;;;;;26.02;62.01;96191.14;625945;226;67399;-63
2022/01/06 06:36:06;;;;;;;;;;;;;;;26.04;62.37;96199.69;625855;226;67051;-63
2022/01/06 06:38:34;;;;;;;;;;;;;;;26.04;61.47;96194.30;625986;226;65333;-63
2022/01/06 06:41:04;;;;;;;;;;;;;;;26.03;62.69;96195.42;625953;226;67202;-63
2022/01/06 06:43:31;;;;;;;;;;;;;;;26.02;62.48;96201.91;625923;226;65134;-65
2022/01/06 06:45:59;;;;;;;;;;;;;;;26.03;63.13;96208.89;625932;226;62957;-64
2022/01/06 06:48:26;;;;;;;;;;;;;;;25.99;62.74;96214.11;626016;226;64533;-64
2022/01/06 06:50:54;;;;;;;;;;;;;;;25.92;62.49;96203.06;625888;224;66895;-64
2022/01/06 06:53:21;;;;;;;;;;;;;;;25.93;63.02;96214.63;625977;226;65030;-64
2022/01/06 06:55:49;;;;;;;;;;;;;;;25.94;62.44;96218.88;625949;226;66910;-64
2022/01/06 06:58:16;;;;;;;;;;;;;;;25.94;62.33;96222.36;625721;226;66843;-64
2022/01/06 07:00:44;;;;;;;;;;;;;;;25.96;62.72;96222.05;625953;226;64904;-64
2022/01/06 07:03:11;;;;;;;;;;;;;;;25.96;63.06;96227.44;625987;226;66875;-63
2022/01/06 07:05:39;;;;;;;;;;;;;;;25.97;62.33;96226.31;625920;226;66923;-64
2022/01/06 07:08:06;;;;;;;;;;;;;;;25.98;63.25;96236.77;624912;226;64826;-63
2022/01/06 07:10:34;;;;;;;;;;;;;;;25.97;63.05;96237.86;620862;226;66867;-63
2022/01/06 07:13:01;;;;;;;;;;;;;;;25.97;62.45;96234.38;618769;229;66666;-64
2022/01/06 07:15:29;;;;;;;;;;;;;;;25.95;63.60;96232.03;618645;229;64876;-59
2022/01/06 07:17:56;;;;;;;;;;;;;;;25.85;60.54;96237.75;618555;229;64881;-60
2022/01/06 07:20:24;;;;;;;;;;;;;;;25.91;60.67;96239.94;618599;229;64391;-60
2022/01/06 07:22:51;;;;;;;;;;;;;;;25.98;61.84;96231.38;618687;229;62896;-60
2022/01/06 07:25:19;;;;;;;;;;;;;;;25.99;60.37;96234.86;618708;229;67199;-60
2022/01/06 07:27:46;;;;;;;;;;;;;;;25.97;60.65;96248.63;618745;229;67116;-60
2022/01/06 07:30:14;;;;;;;;;;;;;;;25.99;62.03;96246.41;618571;229;65020;-65
2022/01/06 07:32:49;;;;;;;;;;;;;;;26.00;63.35;96239.12;622693;226;65955;-65
2022/01/06 07:35:18;;;;;;;;;;;;;;;26.00;61.45;96248.02;624572;226;65008;-66
2022/01/06 07:37:47;;;;;;;;;;;;;;;26.00;62.76;96252.58;625896;226;62661;-65
2022/01/06 07:40:15;;;;;;;;;;;;;;;25.99;62.26;96251.02;625856;226;66893;-61
2022/01/06 07:42:42;;;;;;;;;;;;;;;25.98;61.95;96247.53;625849;226;67014;-65
2022/01/06 07:45:11;;;;;;;;;;;;;;;25.98;62.98;96258.30;625822;226;64870;-60
2022/01/06 07:47:54;;;;;;;;;;;;;;;25.99;62.42;96259.09;625851;226;67579;-65
2022/01/06 07:50:08;;;;;;;;;;;;;;;25.99;62.46;96257.19;625240;226;66956;-66
2022/01/06 07:52:35;;;;;;;;;;;;;;;26.02;62.80;96255.75;625679;226;65856;-65
2022/01/06 07:55:05;;;;;;;;;;;;;;;26.02;62.55;96261.13;624801;226;64903;-65
2022/01/06 07:57:32;;;;;;;;;;;;;;;26.03;63.51;96258.13;625691;226;67050;-65
2022/01/06 08:00:00;;;;;;;;;;;;;;;26.03;63.45;96262.73;625880;226;64853;-59
2022/01/06 08:02:27;;;;;;;;;;;;;;;26.04;64.30;96265.09;625872;226;67051;-65
2022/01/06 08:04:55;;;;;;;;;;;;;;;26.02;61.83;96263.83;625836;226;67004;-63
2022/01/06 08:07:22;;;;;;;;;;;;;;;26.03;62.88;96274.29;625849;226;64991;-65
2022/01/06 08:09:50;;;;;;;;;;;;;;;26.05;61.77;96265.87;625920;226;67218;-64
2022/01/06 08:12:17;;;;;;;;;;;;;;;26.09;61.04;96277.59;625778;226;66873;-64
2022/01/06 08:14:45;;;;;;;;;;;;;;;26.12;61.67;96271.56;625868;226;63802;-65
2022/01/06 08:17:12;;;;;;;;;;;;;;;26.11;61.62;96261.92;625900;226;66951;-64
2022/01/06 08:19:41;;;;;;;;;;;;;;;26.14;62.38;96266.66;625843;226;64881;-63
2022/01/06 08:22:08;;;;;;;;;;;;;;;26.17;60.62;96273.30;625906;226;65007;-63
2022/01/06 08:24:35;;;;;;;;;;;;;;;26.21;60.72;96272.31;625837;226;67291;-64
2022/01/06 08:27:08;;;;;;;;;;;;;;;26.23;61.10;96272.00;625848;226;66787;-64
2022/01/06 08:29:32;;;;;;;;;;;;;;;26.25;60.68;96275.95;625763;226;65081;-64
2022/01/06 08:32:00;;;;;;;;;;;;;;;26.25;60.99;96284.03;625826;226;67234;-62
2022/01/06 08:34:27;;;;;;;;;;;;;;;26.26;61.08;96274.83;625837;226;67156;-62
2022/01/06 08:36:55;;;;;;;;;;;;;;;26.29;61.71;96273.40;625838;226;62636;-62
2022/01/06 08:39:23;;;;;;;;;;;;;;;26.30;61.21;96280.35;625827;226;64946;-62
2022/01/06 08:41:51;;;;;;;;;;;;;;;26.31;62.03;96279.26;625851;226;66805;-63
2022/01/06 08:44:18;;;;;;;;;;;;;;;26.33;61.39;96271.66;621326;226;64923;-62
2022/01/06 08:46:46;;;;;;;;;;;;;;;26.33;62.60;96266.27;625884;226;67032;-62
2022/01/06 08:49:15;;;;;;;;;;;;;;;26.34;62.56;96273.22;625846;226;67264;-62
2022/01/06 08:51:43;;;;;;;;;;;;;;;26.35;62.16;96266.71;625184;226;65657;-64
2022/01/06 08:54:11;;;;;;;;;;;;;;;26.37;63.60;96277.95;624636;227;66858;-62
2022/01/06 08:56:39;;;;;;;;;;;;;;;26.38;61.88;96274.14;624728;227;64942;-62
2022/01/06 08:59:06;;;;;;;;;;;;;;;26.41;62.06;96267.31;624737;227;62919;-63
2022/01/06 09:01:34;;;;;;;;;;;;;;;26.41;61.66;96273.52;624726;227;65109;-58
2022/01/06 09:04:02;;;;;;;;;;;;;;;26.42;62.95;96269.70;624605;227;67120;-65
2022/01/06 09:06:29;;;;;;;;;;;;;;;26.44;62.25;96261.30;624622;227;64883;-63
2022/01/06 09:08:57;;;;;;;;;;;;;;;26.43;62.87;96263.19;624694;227;64849;-64
2022/01/06 09:11:24;;;;;;;;;;;;;;;26.41;61.27;96270.01;624693;227;65001;-63
2022/01/06 09:13:52;;;;;;;;;;;;;;;26.38;62.26;96257.98;624755;227;63030;-64
2022/01/06 09:16:19;;;;;;;;;;;;;;;26.41;61.83;96261.93;624678;227;67062;-64
2022/01/06 09:18:47;;;;;;;;;;;;;;;26.41;60.85;96272.70;621155;227;69994;-62
2022/01/06 09:21:16;;;;;;;;;;;;;;;26.40;60.33;96268.44;615368;227;64601;-64
2022/01/06 09:23:45;;;;;;;;;;;;;;;26.42;60.36;96263.52;624642;227;67322;-62
2022/01/06 09:26:12;;;;;;;;;;;;;;;26.45;60.11;96265.57;624741;227;66880;-64
2022/01/06 09:28:40;;;;;;;;;;;;;;;26.46;59.15;96269.83;624595;227;65014;-63
2022/01/06 09:31:07;;;;;;;;;;;;;;;26.47;59.38;96260.66;624631;227;67051;-63
2022/01/06 09:33:35;;;;;;;;;;;;;;;26.49;59.50;96269.17;624735;227;67043;-69
2022/01/06 09:36:03;;;;;;;;;;;;;;;26.50;60.19;96265.39;624672;227;64853;-69
2022/01/06 09:38:31;;;;;;;;;;;;;;;26.47;59.04;96261.44;624671;227;67245;-64
2022/01/06 09:41:00;;;;;;;;;;;;;;;26.46;58.82;96259.05;624741;227;66845;-63
2022/01/06 09:43:30;;;;;;;;;;;;;;;26.46;57.90;96256.36;624712;227;63828;-63
2022/01/06 09:46:00;;;;;;;;;;;;;;;26.48;59.86;96254.92;624541;226;43877;-63
2022/01/06 09:48:29;;;;;;;;;;;;;;;26.51;59.66;96265.08;624403;226;65102;-63
2022/01/06 09:50:57;;;;;;;;;;;;;;;26.53;59.38;96257.47;624900;226;65093;-63
2022/01/06 09:53:26;;;;;;;;;;;;;;;26.55;59.22;96267.93;625870;226;67144;-65
2022/01/06 09:55:54;;;;;;;;;;;;;;;26.55;59.99;96262.55;625859;226;64486;-62
2022/01/06 09:58:26;;;;;;;;;;;;;;;26.58;60.24;96258.41;625738;226;62940;-62
2022/01/06 10:00:55;;;;;;;;;;;;;;;26.56;59.85;96253.33;625899;226;64856;-63
2022/01/06 10:03:25;;;;;;;;;;;;;;;26.57;59.96;96254.91;625847;226;64894;-63
2022/01/06 10:05:55;;;;;;;;;;;;;;;26.59;60.31;96252.68;625196;226;45034;-63
2022/01/06 10:08:29;;;;;;;;;;;;;;;26.60;60.84;96254.28;625757;226;66547;-68
2022/01/06 10:11:14;;;;;;;;;;;;;;;26.59;60.06;96254.59;625837;226;67051;-66
2022/01/06 10:13:46;;;;;;;;;;;;;;;26.56;60.71;96242.55;625833;226;65007;-62
2022/01/06 10:16:14;;;;;;;;;;;;;;;26.55;59.63;96246.38;625878;226;65363;-61
2022/01/06 10:18:43;;;;;;;;;;;;;;;26.61;58.47;96245.06;625861;226;67011;-62
2022/01/06 10:21:15;;;;;;;;;;;;;;;26.60;58.33;96235.41;625558;226;65060;-63
2022/01/06 10:23:42;;;;;;;;;;;;;;;26.63;57.34;96234.76;625948;226;67259;-62
2022/01/06 10:26:13;;;;;;;;;;;;;;;26.64;58.06;96232.84;625885;226;67174;-63
2022/01/06 10:28:41;;;;;;;;;;;;;;;26.60;59.79;96235.41;625901;226;65067;-63
2022/01/06 10:31:10;;;;;;;;;;;;;;;26.63;58.69;96229.37;625930;226;64742;-61
2022/01/06 10:33:39;;;;;;;;;;;;;;;26.64;60.22;96228.23;625820;226;67165;-61
2022/01/06 10:36:08;;;;;;;;;;;;;;;26.65;60.02;96224.42;625945;226;65068;-61
2022/01/06 10:38:36;;;;;;;;;;;;;;;26.68;60.50;96217.59;625851;226;67194;-61
2022/01/06 10:41:11;;;;;;;;;;;;;;;26.67;60.17;96214.11;625861;226;66827;-61
2022/01/06 10:43:38;;;;;;;;;;;;;;;26.68;58.65;96212.20;625640;226;62891;-62
2022/01/06 10:46:07;;;;;;;;;;;;;;;26.67;59.85;96211.41;625894;226;67020;-62
2022/01/06 10:48:35;;;;;;;;;;;;;;;26.68;60.10;96207.63;625795;226;66943;-62
2022/01/06 10:51:03;;;;;;;;;;;;;;;26.71;60.03;96206.96;625922;226;65074;-62
2022/01/06 10:53:32;;;;;;;;;;;;;;;26.71;60.51;96204.27;625821;226;64856;-62
2022/01/06 10:56:00;;;;;;;;;;;;;;;26.71;60.47;96206.96;625566;226;66321;-64
2022/01/06 10:58:27;;;;;;;;;;;;;;;26.69;56.20;96192.23;625915;226;64967;-62
2022/01/06 11:00:56;;;;;;;;;;;;;;;26.74;58.68;96192.05;625887;226;66796;-64
2022/01/06 11:03:25;;;;;;;;;;;;;;;26.74;60.67;96190.13;625826;226;66728;-63
2022/01/06 11:05:54;;;;;;;;;;;;;;;26.74;59.67;96184.74;625921;226;64855;-63
2022/01/06 11:08:25;;;;;;;;;;;;;;;26.76;59.59;96185.21;625777;225;67010;-62
2022/01/06 11:11:15;;;;;;;;;;;;;;;26.78;60.74;96191.04;625873;226;66781;-62
2022/01/06 11:13:32;;;;;;;;;;;;;;;26.79;60.46;96175.64;625549;226;63822;-63
2022/01/06 11:15:59;;;;;;;;;;;;;;;26.79;60.51;96176.46;625903;226;64634;-66
2022/01/06 11:18:27;;;;;;;;;;;;;;;26.82;60.39;96179.59;625818;226;64704;-66
2022/01/06 11:21:08;;;;;;;;;;;;;;;26.85;60.00;96173.57;625919;226;62949;-66
2022/01/06 11:23:36;;;;;;;;;;;;;;;26.86;60.71;96173.23;625795;226;66765;-66
2022/01/06 11:26:14;;;;;;;;;;;;;;;26.87;59.32;96174.01;625884;226;66991;-66
2022/01/06 11:28:43;;;;;;;;;;;;;;;26.87;60.38;96174.01;625867;225;67460;-65
2022/01/06 11:31:18;;;;;;;;;;;;;;;26.88;60.49;96165.60;625227;226;67389;-65
2022/01/06 11:33:47;;;;;;;;;;;;;;;26.90;60.48;96159.87;625871;226;67054;-66
2022/01/06 11:36:19;;;;;;;;;;;;;;;26.91;60.91;96162.25;625865;226;62903;-66
2022/01/06 11:38:48;;;;;;;;;;;;;;;26.91;58.98;96161.46;625850;226;67022;-68
2022/01/06 11:41:16;;;;;;;;;;;;;;;26.94;60.74;96158.11;625877;226;64988;-67
2022/01/06 11:43:45;;;;;;;;;;;;;;;26.94;60.76;96164.28;625932;226;62915;-64
2022/01/06 11:46:14;;;;;;;;;;;;;;;26.95;60.46;96165.06;625846;226;67452;-65
2022/01/06 11:48:50;;;;;;;;;;;;;;;26.98;60.89;96167.09;625745;226;67147;-65
2022/01/06 11:51:31;;;;;;;;;;;;;;;26.97;60.95;96171.70;625414;226;65146;-64
2022/01/06 11:53:59;;;;;;;;;;;;;;;27.01;60.73;96175.33;624728;227;64924;-65
2022/01/06 11:56:27;;;;;;;;;;;;;;;27.01;61.30;96169.94;624740;227;65016;-65
2022/01/06 11:59:02;;;;;;;;;;;;;;;27.01;61.13;96166.45;624738;227;65007;-64
2022/01/06 12:01:31;;;;;;;;;;;;;;;26.99;61.03;96169.47;624746;227;67260;-66
2022/01/06 12:03:59;;;;;;;;;;;;;;;27.02;60.91;96173.42;624430;226;66838;-65
2022/01/06 12:06:28;;;;;;;;;;;;;;;27.02;60.45;96168.03;624648;227;64896;-66
2022/01/06 12:08:56;;;;;;;;;;;;;;;27.04;60.96;96171.19;624663;227;64864;-65
2022/01/06 12:11:25;;;;;;;;;;;;;;;27.06;60.38;96168.92;624784;227;66655;-66
2022/01/06 12:13:54;;;;;;;;;;;;;;;27.09;61.81;96176.38;624697;227;65051;-65
2022/01/06 12:16:26;;;;;;;;;;;;;;;27.07;60.68;96173.22;624733;227;67061;-65
2022/01/06 12:18:53;;;;;;;;;;;;;;;27.10;61.16;96169.08;624717;227;65313;-63
2022/01/06 12:21:21;;;;;;;;;;;;;;;27.09;60.99;96168.30;624710;227;62926;-64
2022/01/06 12:23:50;;;;;;;;;;;;;;;27.09;60.92;96168.30;624791;227;66989;-66
2022/01/06 12:26:19;;;;;;;;;;;;;;;27.08;59.30;96174.78;624502;226;65134;-65
2022/01/06 12:28:50;;;;;;;;;;;;;;;27.09;59.26;96175.57;624658;227;62927;-66
2022/01/06 12:31:23;;;;;;;;;;;;;;;27.07;60.41;96170.52;624731;227;67169;-66
2022/01/06 12:33:51;;;;;;;;;;;;;;;27.04;60.30;96168.48;624455;226;64775;-67
2022/01/06 12:36:20;;;;;;;;;;;;;;;27.04;60.92;96171.19;624636;227;65135;-66
2022/01/06 12:38:48;;;;;;;;;;;;;;;27.06;60.61;96174.32;624680;227;66702;-61
2022/01/06 12:41:17;;;;;;;;;;;;;;;27.08;60.91;96177.48;624666;227;67051;-62
2022/01/06 12:43:45;;;;;;;;;;;;;;;27.08;60.16;96174.78;624695;227;62967;-60
2022/01/06 12:46:14;;;;;;;;;;;;;;;27.08;59.75;96176.70;624650;227;65304;-62
2022/01/06 12:48:43;;;;;;;;;;;;;;;27.09;60.16;96168.30;624347;226;64838;-54
2022/01/06 12:51:12;;;;;;;;;;;;;;;27.08;59.46;96172.09;624621;226;64887;-59
2022/01/06 12:53:41;;;;;;;;;;;;;;;27.09;59.45;96173.69;624731;227;64930;-60
2022/01/06 12:56:09;;;;;;;;;;;;;;;27.09;59.41;96178.27;624491;226;67037;-60
2022/01/06 12:58:40;;;;;;;;;;;;;;;27.08;59.43;96179.39;624648;227;65040;-60